createdAt,value
2018-06-21T00:00:59.286Z,33.10
2018-06-21T00:03:03.383Z,38.57
2018-06-21T00:05:07.392Z,42.60
2018-06-21T00:07:11.647Z,34.07
2018-06-21T00:09:16.255Z,43.97
2018-06-21T00:11:20.561Z,35.63
2018-06-21T00:13:24.993Z,33.70
2018-06-21T00:15:29.235Z,28.07
2018-06-21T00:17:33.869Z,32.30
2018-06-21T00:19:38.178Z,28.90
2018-06-21T00:21:42.506Z,33.13
2018-06-21T00:23:46.815Z,30.20
2018-06-21T00:25:50.837Z,35.97
2018-06-21T00:27:54.760Z,33.43
2018-06-21T00:29:59.010Z,35.73
2018-06-21T00:32:03.296Z,34.93
2018-06-21T00:34:07.574Z,34.00
2018-06-21T00:36:11.853Z,31.80
2018-06-21T00:38:16.154Z,30.60
2018-06-21T00:40:20.469Z,35.83
2018-06-21T00:42:24.784Z,38.90
2018-06-21T00:44:29.203Z,32.37
2018-06-21T00:46:33.511Z,31.03
2018-06-21T00:48:37.929Z,27.07
2018-06-21T00:50:42.210Z,35.93
2018-06-21T00:52:46.462Z,35.77
2018-06-21T00:54:50.846Z,33.80
2018-06-21T00:56:55.116Z,35.20
2018-06-21T00:58:59.154Z,37.07
2018-06-21T01:01:04.031Z,34.80
2018-06-21T01:03:07.993Z,28.13
2018-06-21T01:05:12.113Z,40.27
2018-06-21T01:07:16.852Z,36.00
2018-06-21T01:09:21.107Z,33.80
2018-06-21T01:11:25.117Z,39.90
2018-06-21T01:13:29.270Z,32.10
2018-06-21T01:15:33.742Z,34.07
2018-06-21T01:17:37.729Z,25.90
2018-06-21T01:19:41.714Z,34.33
2018-06-21T01:21:46.054Z,33.83
2018-06-21T01:23:50.394Z,33.90
2018-06-21T01:25:54.516Z,31.37
2018-06-21T01:27:58.809Z,30.63
2018-06-21T01:30:02.822Z,29.97
2018-06-21T01:32:06.988Z,35.97
2018-06-21T01:34:11.534Z,34.63
2018-06-21T01:36:15.830Z,30.97
2018-06-21T01:38:20.130Z,34.43
2018-06-21T01:40:24.447Z,30.17
2018-06-21T01:42:28.717Z,36.97
2018-06-21T01:44:33.027Z,34.50
2018-06-21T01:46:37.405Z,37.23
2018-06-21T01:48:41.402Z,34.93
2018-06-21T01:50:45.582Z,25.73
2018-06-21T01:52:49.843Z,32.47
2018-06-21T01:54:54.159Z,34.00
2018-06-21T01:56:58.754Z,37.50
2018-06-21T01:59:03.112Z,30.70
2018-06-21T02:01:07.386Z,31.20
2018-06-21T02:03:11.641Z,29.30
2018-06-21T02:05:15.978Z,34.63
2018-06-21T02:07:20.383Z,33.20
2018-06-21T02:09:24.686Z,32.60
2018-06-21T02:11:29.049Z,31.57
2018-06-21T02:13:33.271Z,25.17
2018-06-21T02:15:37.567Z,28.93
2018-06-21T02:17:42.086Z,30.90
2018-06-21T02:19:46.100Z,31.80
2018-06-21T02:21:50.357Z,31.10
2018-06-21T02:23:54.423Z,36.50
2018-06-21T02:25:58.594Z,32.17
2018-06-21T02:28:02.950Z,40.27
2018-06-21T02:30:07.670Z,28.00
2018-06-21T02:32:11.941Z,27.17
2018-06-21T02:34:16.214Z,32.00
2018-06-21T02:36:20.982Z,30.00
2018-06-21T02:38:25.308Z,35.37
2018-06-21T02:40:30.055Z,33.77
2018-06-21T02:42:34.334Z,32.60
2018-06-21T02:44:38.372Z,35.80
2018-06-21T02:46:42.764Z,31.73
2018-06-21T02:48:47.181Z,33.90
2018-06-21T02:50:51.646Z,32.93
2018-06-21T02:52:55.943Z,44.20
2018-06-21T02:55:00.251Z,32.83
2018-06-21T02:57:05.331Z,33.43
2018-06-21T02:59:09.315Z,33.37
2018-06-21T03:01:13.563Z,28.80
2018-06-21T03:03:17.613Z,34.20
2018-06-21T03:05:21.928Z,33.10
2018-06-21T03:07:26.205Z,31.90
2018-06-21T03:09:30.971Z,36.43
2018-06-21T03:11:35.592Z,32.10
2018-06-21T03:13:39.826Z,30.33
2018-06-21T03:15:51.110Z,28.77
2018-06-21T03:17:55.376Z,32.20
2018-06-21T03:19:59.602Z,23.57
2018-06-21T03:22:04.237Z,35.13
2018-06-21T03:24:08.740Z,33.73
2018-06-21T03:26:12.751Z,30.43
2018-06-21T03:28:17.369Z,29.60
2018-06-21T03:30:21.609Z,31.13
2018-06-21T03:32:25.858Z,28.00
2018-06-21T03:34:30.354Z,30.40
2018-06-21T03:36:34.537Z,25.47
2018-06-21T03:38:38.816Z,27.07
2018-06-21T03:40:43.102Z,23.17
2018-06-21T03:42:47.441Z,13.80
2018-06-21T03:44:51.689Z,14.23
2018-06-21T03:46:55.963Z,16.97
2018-06-21T03:48:59.971Z,5.97
2018-06-21T03:51:04.135Z,4.40
2018-06-21T03:53:08.386Z,1.83
2018-06-21T03:55:12.818Z,6.83
2018-06-21T03:57:17.097Z,2.37
2018-06-21T03:59:21.152Z,2.10
2018-06-21T04:01:25.497Z,3.10
2018-06-21T04:03:29.838Z,2.13
2018-06-21T04:05:34.103Z,2.20
2018-06-21T04:07:38.081Z,1.40
2018-06-21T04:09:42.999Z,4.77
2018-06-21T04:11:48.307Z,2.60
2018-06-21T04:13:53.766Z,2.53
2018-06-21T04:15:59.522Z,3.27
2018-06-21T04:18:04.863Z,4.10
2018-06-21T04:20:11.086Z,2.90
2018-06-21T04:22:17.540Z,4.17
2018-06-21T04:24:27.563Z,3.20
2018-06-21T04:26:34.074Z,4.30
2018-06-21T04:28:39.065Z,3.47
2018-06-21T04:30:44.541Z,5.10
2018-06-21T04:32:51.265Z,4.07
2018-06-21T04:34:56.286Z,5.77
2018-06-21T04:37:01.217Z,3.07
2018-06-21T04:39:08.403Z,4.17
2018-06-21T04:41:12.856Z,4.67
2018-06-21T04:43:17.158Z,5.70
2018-06-21T04:45:21.792Z,7.97
2018-06-21T04:47:25.582Z,5.67
2018-06-21T04:49:29.686Z,11.83
2018-06-21T04:51:33.979Z,5.37
2018-06-21T04:53:37.965Z,11.17
2018-06-21T04:55:42.186Z,6.23
2018-06-21T04:57:46.556Z,8.70
2018-06-21T04:59:50.861Z,4.57
2018-06-21T05:01:55.154Z,7.97
2018-06-21T05:03:59.470Z,6.63
2018-06-21T05:06:04.335Z,4.70
2018-06-21T05:08:08.298Z,5.57
2018-06-21T05:10:12.313Z,3.30
2018-06-21T05:12:20.910Z,4.47
2018-06-21T05:14:25.207Z,5.20
2018-06-21T05:16:29.454Z,3.70
2018-06-21T05:18:33.709Z,5.53
2018-06-21T05:20:37.986Z,1.97
2018-06-21T05:22:42.271Z,2.90
2018-06-21T05:24:46.850Z,9.33
2018-06-21T05:26:51.103Z,7.60
2018-06-21T05:28:55.386Z,7.60
2018-06-21T05:30:59.662Z,5.73
2018-06-21T05:33:03.928Z,8.57
2018-06-21T05:35:08.192Z,4.97
2018-06-21T05:37:12.714Z,5.53
2018-06-21T05:39:17.171Z,5.27
2018-06-21T05:41:21.917Z,8.27
2018-06-21T05:43:26.179Z,4.63
2018-06-21T05:45:30.181Z,4.90
2018-06-21T05:47:35.231Z,2.63
2018-06-21T05:49:39.597Z,7.10
2018-06-21T05:51:43.810Z,6.17
2018-06-21T05:53:48.124Z,4.17
2018-06-21T05:55:52.774Z,9.67
2018-06-21T05:57:56.821Z,6.43
2018-06-21T06:00:01.075Z,2.60
2018-06-21T06:02:05.430Z,3.53
2018-06-21T06:04:09.691Z,3.90
2018-06-21T06:06:14.269Z,6.03
2018-06-21T06:08:18.607Z,9.33
2018-06-21T06:10:23.251Z,4.17
2018-06-21T06:12:27.549Z,5.27
2018-06-21T06:14:31.790Z,3.77
2018-06-21T06:16:36.015Z,2.77
2018-06-21T06:18:40.009Z,5.83
2018-06-21T06:20:44.306Z,3.40
2018-06-21T06:22:48.266Z,6.33
2018-06-21T06:24:52.508Z,2.70
2018-06-21T06:26:56.830Z,1.97
2018-06-21T06:29:01.109Z,4.10
2018-06-21T06:31:05.619Z,4.80
2018-06-21T06:33:09.866Z,9.90
2018-06-21T06:35:14.123Z,5.67
2018-06-21T06:37:18.370Z,10.03
2018-06-21T06:39:22.416Z,4.43
2018-06-21T06:41:26.462Z,7.30
2018-06-21T06:43:30.455Z,3.40
2018-06-21T06:45:34.722Z,6.77
2018-06-21T06:47:38.772Z,7.27
2018-06-21T06:49:43.058Z,8.93
2018-06-21T06:51:47.310Z,11.13
2018-06-21T06:53:51.590Z,5.47
2018-06-21T06:55:56.234Z,9.77
2018-06-21T06:58:00.823Z,6.00
2018-06-21T07:00:06.258Z,6.80
2018-06-21T07:02:10.271Z,6.70
2018-06-21T07:04:14.241Z,9.20
2018-06-21T07:06:18.387Z,8.17
2018-06-21T07:08:23.030Z,4.87
2018-06-21T07:10:27.603Z,12.30
2018-06-21T07:12:32.191Z,12.13
2018-06-21T07:14:36.600Z,6.20
2018-06-21T07:16:41.356Z,5.60
2018-06-21T07:18:45.374Z,8.63
2018-06-21T07:20:49.618Z,11.33
2018-06-21T07:22:53.931Z,12.63
2018-06-21T07:24:58.158Z,15.07
2018-06-21T07:27:02.442Z,3.30
2018-06-21T07:29:07.090Z,5.63
2018-06-21T07:31:11.340Z,5.47
2018-06-21T07:33:15.612Z,7.83
2018-06-21T07:35:19.875Z,10.47
2018-06-21T07:37:24.231Z,5.23
2018-06-21T07:39:28.430Z,5.73
2018-06-21T07:41:32.704Z,7.60
2018-06-21T07:43:36.966Z,5.90
2018-06-21T07:45:41.294Z,4.13
2018-06-21T07:47:45.591Z,6.40
2018-06-21T07:49:49.578Z,8.33
2018-06-21T07:51:53.846Z,5.73
2018-06-21T07:53:58.093Z,7.00
2018-06-21T07:56:02.546Z,11.30
2018-06-21T07:58:06.794Z,6.30
2018-06-21T08:00:11.050Z,13.70
2018-06-21T08:02:15.315Z,7.30
2018-06-21T08:04:19.605Z,3.80
2018-06-21T08:06:23.852Z,7.67
2018-06-21T08:08:28.095Z,8.83
2018-06-21T08:10:32.844Z,2.33
2018-06-21T08:12:37.039Z,5.27
2018-06-21T08:14:41.472Z,3.30
2018-06-21T08:16:45.811Z,4.63
2018-06-21T08:18:50.046Z,1.90
2018-06-21T08:20:54.316Z,4.63
2018-06-21T08:22:58.834Z,4.73
2018-06-21T08:25:03.146Z,15.47
2018-06-21T08:27:07.687Z,2.03
2018-06-21T08:29:11.971Z,6.30
2018-06-21T08:31:15.930Z,2.47
2018-06-21T08:33:20.163Z,3.63
2018-06-21T08:35:24.729Z,5.40
2018-06-21T08:37:28.874Z,6.17
2018-06-21T08:39:33.148Z,3.80
2018-06-21T08:41:37.789Z,2.50
2018-06-21T08:43:41.790Z,4.30
2018-06-21T08:45:46.089Z,3.70
2018-06-21T08:47:50.667Z,1.43
2018-06-21T08:49:54.806Z,3.80
2018-06-21T08:51:58.995Z,3.33
2018-06-21T08:54:03.407Z,5.77
2018-06-21T08:56:08.086Z,3.70
2018-06-21T08:58:12.360Z,4.13
2018-06-21T09:00:17.051Z,3.00
2018-06-21T09:02:21.315Z,5.87
2018-06-21T09:04:25.554Z,2.50
2018-06-21T09:06:29.834Z,6.40
2018-06-21T09:08:34.424Z,13.93
2018-06-21T09:10:38.656Z,3.43
2018-06-21T09:12:42.910Z,3.40
2018-06-21T09:14:47.814Z,5.40
2018-06-21T09:16:52.458Z,5.10
2018-06-21T09:18:56.693Z,3.40
2018-06-21T09:21:01.593Z,2.13
2018-06-21T09:23:06.043Z,1.83
2018-06-21T09:25:10.278Z,3.27
2018-06-21T09:27:14.620Z,1.10
2018-06-21T09:29:18.838Z,1.57
2018-06-21T09:31:23.158Z,15.07
2018-06-21T09:33:27.406Z,6.00
2018-06-21T09:35:31.644Z,2.00
2018-06-21T09:37:41.095Z,1.37
2018-06-21T09:39:50.426Z,2.87
2018-06-21T09:42:00.290Z,2.90
2018-06-21T09:44:10.265Z,3.33
2018-06-21T09:46:20.058Z,5.33
2018-06-21T09:48:31.820Z,8.03
2018-06-21T09:50:36.062Z,8.90
2018-06-21T09:52:40.375Z,4.40
2018-06-21T09:54:44.622Z,2.90
2018-06-21T09:56:49.242Z,3.67
2018-06-21T09:58:53.523Z,0.90
2018-06-21T10:01:01.696Z,5.13
2018-06-21T10:03:05.838Z,3.43
2018-06-21T10:05:10.154Z,6.77
2018-06-21T10:07:14.115Z,2.30
2018-06-21T10:09:18.567Z,5.87
2018-06-21T10:11:23.025Z,3.20
2018-06-21T10:13:27.404Z,4.87
2018-06-21T10:15:31.625Z,6.57
2018-06-21T10:17:36.180Z,6.07
2018-06-21T10:19:41.567Z,3.07
2018-06-21T10:21:45.826Z,3.13
2018-06-21T10:23:49.815Z,3.20
2018-06-21T10:25:54.056Z,4.40
2018-06-21T10:27:58.322Z,4.20
2018-06-21T10:30:02.946Z,3.13
2018-06-21T10:32:07.531Z,1.57
2018-06-21T10:34:11.782Z,2.83
2018-06-21T10:36:16.098Z,1.10
2018-06-21T10:38:20.407Z,2.17
2018-06-21T10:40:24.653Z,2.50
2018-06-21T10:42:28.672Z,1.13
2018-06-21T10:44:32.931Z,6.93
2018-06-21T10:46:36.957Z,2.80
2018-06-21T10:48:41.255Z,1.10
2018-06-21T10:50:45.707Z,1.63
2018-06-21T10:52:50.010Z,5.37
2018-06-21T10:54:54.278Z,6.37
2018-06-21T10:56:58.612Z,6.80
2018-06-21T10:59:03.429Z,1.43
2018-06-21T11:01:07.886Z,3.87
2018-06-21T11:03:11.905Z,4.90
2018-06-21T11:05:16.376Z,3.87
2018-06-21T11:07:20.654Z,4.83
2018-06-21T11:09:24.642Z,4.40
2018-06-21T11:11:28.627Z,3.87
2018-06-21T11:13:32.900Z,3.40
2018-06-21T11:15:37.340Z,2.07
2018-06-21T11:17:41.552Z,3.27
2018-06-21T11:19:46.097Z,2.63
2018-06-21T11:21:50.373Z,1.23
2018-06-21T11:23:54.648Z,2.87
2018-06-21T11:25:58.682Z,7.10
2018-06-21T11:28:03.161Z,1.63
2018-06-21T11:30:08.009Z,4.30
2018-06-21T11:32:12.275Z,2.90
2018-06-21T11:34:16.565Z,22.53
2018-06-21T11:36:20.843Z,3.00
2018-06-21T11:38:25.161Z,5.40
2018-06-21T11:40:29.070Z,4.40
2018-06-21T11:42:33.352Z,2.00
2018-06-21T11:44:37.897Z,3.37
2018-06-21T11:46:42.185Z,2.73
2018-06-21T11:48:46.595Z,5.43
2018-06-21T11:50:50.865Z,2.67
2018-06-21T11:52:55.130Z,3.87
2018-06-21T11:54:59.386Z,7.40
2018-06-21T11:57:03.636Z,3.57
2018-06-21T11:59:07.939Z,5.93
2018-06-21T12:01:12.817Z,3.90
2018-06-21T12:03:17.254Z,2.43
2018-06-21T12:05:21.715Z,2.03
2018-06-21T12:07:25.687Z,8.70
2018-06-21T12:09:30.147Z,5.13
2018-06-21T12:11:34.397Z,1.87
2018-06-21T12:13:38.834Z,5.40
2018-06-21T12:15:43.494Z,1.20
2018-06-21T12:17:47.754Z,5.90
2018-06-21T12:19:51.725Z,2.50
2018-06-21T12:21:55.698Z,6.80
2018-06-21T12:23:59.646Z,2.77
2018-06-21T12:26:04.010Z,3.03
2018-06-21T12:28:08.534Z,6.40
2018-06-21T12:30:12.736Z,3.57
2018-06-21T12:32:17.415Z,3.20
2018-06-21T12:34:21.417Z,3.10
2018-06-21T12:36:25.571Z,4.17
2018-06-21T12:38:29.906Z,1.80
2018-06-21T12:40:34.198Z,1.20
2018-06-21T12:42:38.543Z,1.70
2018-06-21T12:44:42.947Z,1.07
2018-06-21T12:46:47.186Z,3.70
2018-06-21T12:48:51.654Z,2.43
2018-06-21T12:50:55.931Z,4.63
2018-06-21T12:53:00.210Z,5.67
2018-06-21T12:55:04.786Z,2.30
2018-06-21T12:57:09.272Z,1.67
2018-06-21T12:59:13.540Z,1.67
2018-06-21T13:01:17.862Z,2.27
2018-06-21T13:03:21.858Z,1.80
2018-06-21T13:05:26.217Z,1.63
2018-06-21T13:07:30.622Z,3.83
2018-06-21T13:09:46.319Z,3.27
2018-06-21T13:12:28.583Z,2.43
2018-06-21T13:14:32.583Z,1.23
2018-06-21T13:16:36.915Z,1.10
2018-06-21T13:18:40.926Z,1.10
2018-06-21T13:20:45.214Z,1.73
2018-06-21T13:22:49.480Z,2.03
2018-06-21T13:24:53.751Z,1.30
2018-06-21T13:26:58.004Z,1.27
2018-06-21T13:29:02.278Z,0.70
2018-06-21T13:31:06.700Z,3.50
2018-06-21T13:33:11.315Z,4.33
2018-06-21T13:35:15.642Z,1.03
2018-06-21T13:37:19.910Z,2.00
2018-06-21T13:39:24.163Z,4.20
2018-06-21T13:41:28.410Z,1.00
2018-06-21T13:43:32.646Z,0.70
2018-06-21T13:45:37.153Z,1.40
2018-06-21T13:47:41.154Z,1.03
2018-06-21T13:49:45.769Z,1.80
2018-06-21T13:51:50.603Z,2.37
2018-06-21T13:53:54.719Z,1.53
2018-06-21T13:55:58.998Z,1.20
2018-06-21T13:58:03.248Z,0.70
2018-06-21T14:00:08.177Z,0.77
2018-06-21T14:02:12.525Z,0.80
2018-06-21T14:04:16.786Z,1.67
2018-06-21T14:06:21.101Z,1.93
2018-06-21T14:08:25.162Z,3.43
2018-06-21T14:10:29.258Z,1.67
2018-06-21T14:12:33.298Z,2.20
2018-06-21T14:14:37.571Z,2.83
2018-06-21T14:16:41.822Z,2.00
2018-06-21T14:18:46.128Z,1.77
2018-06-21T14:20:50.448Z,3.33
2018-06-21T14:22:54.866Z,1.57
2018-06-21T14:24:59.133Z,2.20
2018-06-21T14:27:03.395Z,0.70
2018-06-21T14:29:07.662Z,1.30
2018-06-21T14:31:11.922Z,1.47
2018-06-21T14:33:16.192Z,1.23
2018-06-21T14:35:20.692Z,1.47
2018-06-21T14:37:25.142Z,2.67
2018-06-21T14:39:29.768Z,0.70
2018-06-21T14:41:33.971Z,1.03
2018-06-21T14:43:38.273Z,2.07
2018-06-21T14:45:42.257Z,1.87
2018-06-21T14:47:46.297Z,3.50
2018-06-21T14:49:50.711Z,1.00
2018-06-21T14:51:54.716Z,1.67
2018-06-21T14:53:58.967Z,3.03
2018-06-21T14:56:03.250Z,0.73
2018-06-21T14:58:07.577Z,1.57
2018-06-21T15:00:12.120Z,1.10
2018-06-21T15:02:16.442Z,1.23
2018-06-21T15:04:20.716Z,1.50
2018-06-21T15:06:24.730Z,3.20
2018-06-21T15:08:29.058Z,3.17
2018-06-21T15:10:33.330Z,3.23
2018-06-21T15:12:38.271Z,2.10
2018-06-21T15:14:42.800Z,0.80
2018-06-21T15:16:46.989Z,1.63
2018-06-21T15:18:51.263Z,1.37
2018-06-21T15:20:55.716Z,1.47
2018-06-21T15:23:00.309Z,1.97
2018-06-21T15:25:04.778Z,1.77
2018-06-21T15:27:09.229Z,1.00
2018-06-21T15:29:13.663Z,0.70
2018-06-21T15:31:18.124Z,1.20
2018-06-21T15:33:22.794Z,0.80
2018-06-21T15:35:27.055Z,1.53
2018-06-21T15:37:31.391Z,5.33
2018-06-21T15:39:35.638Z,3.20
2018-06-21T15:41:40.159Z,1.10
2018-06-21T15:43:44.389Z,2.30
2018-06-21T15:45:48.658Z,3.30
2018-06-21T15:47:53.283Z,1.67
2018-06-21T15:49:57.520Z,0.70
2018-06-21T15:52:02.103Z,1.10
2018-06-21T15:54:06.030Z,0.90
2018-06-21T15:56:10.331Z,0.87
2018-06-21T15:58:14.601Z,0.80
2018-06-21T16:00:19.194Z,1.00
2018-06-21T16:02:23.499Z,1.83
2018-06-21T16:04:27.966Z,1.57
2018-06-21T16:06:32.574Z,1.40
2018-06-21T16:08:37.049Z,0.87
2018-06-21T16:10:41.503Z,1.03
2018-06-21T16:12:45.953Z,2.00
2018-06-21T16:14:50.034Z,2.37
2018-06-21T16:16:54.634Z,1.47
2018-06-21T16:18:58.893Z,0.90
2018-06-21T16:21:03.520Z,1.73
2018-06-21T16:23:07.933Z,1.27
2018-06-21T16:25:12.242Z,1.97
2018-06-21T16:27:16.654Z,2.83
2018-06-21T16:29:20.654Z,1.97
2018-06-21T16:31:24.763Z,1.00
2018-06-21T16:33:29.490Z,1.93
2018-06-21T16:35:34.014Z,1.63
2018-06-21T16:37:37.982Z,2.50
2018-06-21T16:39:42.123Z,1.43
2018-06-21T16:41:46.428Z,1.20
2018-06-21T16:43:50.662Z,1.57
2018-06-21T16:45:54.934Z,1.17
2018-06-21T16:47:59.283Z,6.93
2018-06-21T16:50:03.576Z,2.83
2018-06-21T16:52:07.827Z,3.70
2018-06-21T16:54:12.129Z,5.00
2018-06-21T16:56:16.434Z,4.33
2018-06-21T16:58:21.002Z,6.83
2018-06-21T17:00:25.041Z,2.30
2018-06-21T17:02:28.913Z,3.60
2018-06-21T17:04:33.038Z,4.40
2018-06-21T17:06:37.339Z,2.70
2018-06-21T17:08:41.600Z,1.67
2018-06-21T17:10:45.534Z,3.30
2018-06-21T17:12:49.946Z,2.70
2018-06-21T17:14:54.218Z,4.50
2018-06-21T17:16:58.510Z,2.23
2018-06-21T17:19:02.990Z,2.00
2018-06-21T17:21:07.227Z,4.30
2018-06-21T17:23:11.782Z,2.87
2018-06-21T17:25:16.053Z,8.90
2018-06-21T17:27:20.311Z,3.77
2018-06-21T17:29:24.580Z,4.07
2018-06-21T17:31:28.854Z,9.87
2018-06-21T17:33:33.160Z,2.73
2018-06-21T17:35:37.472Z,8.30
2018-06-21T17:37:41.470Z,8.43
2018-06-21T17:39:45.784Z,2.13
2018-06-21T17:41:50.207Z,4.97
2018-06-21T17:43:54.478Z,5.27
2018-06-21T17:45:58.853Z,1.70
2018-06-21T17:48:03.322Z,3.03
2018-06-21T17:50:07.577Z,5.20
2018-06-21T17:52:11.538Z,4.43
2018-06-21T17:54:15.677Z,2.77
2018-06-21T17:56:20.029Z,7.20
2018-06-21T17:58:24.478Z,6.20
2018-06-21T18:00:28.807Z,4.60
2018-06-21T18:02:33.252Z,7.33
2018-06-21T18:04:37.505Z,2.33
2018-06-21T18:06:41.946Z,1.80
2018-06-21T18:08:45.949Z,2.17
2018-06-21T18:10:50.258Z,7.53
2018-06-21T18:12:54.687Z,3.27
2018-06-21T18:14:59.420Z,11.57
2018-06-21T18:17:04.043Z,2.67
2018-06-21T18:19:08.298Z,3.10
2018-06-21T18:21:12.731Z,3.10
2018-06-21T18:23:17.664Z,1.20
2018-06-21T18:25:22.038Z,6.73
2018-06-21T18:27:26.375Z,6.40
2018-06-21T18:29:30.645Z,4.50
2018-06-21T18:31:34.954Z,2.30
2018-06-21T18:33:39.325Z,1.30
2018-06-21T18:35:43.943Z,7.53
2018-06-21T18:37:48.527Z,5.17
2018-06-21T18:39:52.802Z,3.27
2018-06-21T18:41:57.122Z,6.23
2018-06-21T18:44:01.401Z,5.67
2018-06-21T18:46:05.994Z,3.33
2018-06-21T18:48:10.282Z,5.03
2018-06-21T18:50:15.007Z,2.47
2018-06-21T18:52:19.247Z,2.37
2018-06-21T18:54:23.486Z,0.70
2018-06-21T18:56:27.450Z,6.73
2018-06-21T18:58:31.723Z,2.03
2018-06-21T19:00:36.245Z,1.50
2018-06-21T19:02:40.712Z,1.30
2018-06-21T19:04:45.818Z,6.43
2018-06-21T19:06:55.830Z,5.83
2018-06-21T19:09:05.148Z,6.13
2018-06-21T19:11:26.784Z,8.90
2018-06-21T19:13:31.163Z,2.60
2018-06-21T19:15:35.372Z,7.43
2018-06-21T19:17:39.935Z,7.20
2018-06-21T19:19:44.214Z,5.60
2018-06-21T19:21:48.517Z,4.90
2018-06-21T19:23:52.902Z,2.83
2018-06-21T19:25:57.158Z,4.17
2018-06-21T19:28:01.482Z,9.37
2018-06-21T19:30:06.257Z,2.17
2018-06-21T19:32:10.295Z,3.63
2018-06-21T19:34:14.502Z,5.10
2018-06-21T19:36:18.752Z,6.90
2018-06-21T19:38:23.103Z,8.53
2018-06-21T19:40:27.560Z,3.63
2018-06-21T19:42:31.811Z,4.97
2018-06-21T19:44:36.179Z,4.63
2018-06-21T19:46:40.477Z,7.00
2018-06-21T19:48:44.812Z,10.03
2018-06-21T19:50:49.122Z,4.23
2018-06-21T19:52:53.434Z,12.97
2018-06-21T19:54:57.431Z,8.27
2018-06-21T19:57:01.738Z,9.83
2018-06-21T19:59:06.015Z,4.90
2018-06-21T20:01:10.638Z,4.03
2018-06-21T20:03:14.949Z,3.80
2018-06-21T20:05:19.179Z,7.00
2018-06-21T20:07:23.288Z,6.63
2018-06-21T20:09:28.050Z,1.83
2018-06-21T20:11:37.182Z,3.80
2018-06-21T20:13:45.311Z,6.57
2018-06-21T20:15:52.839Z,6.70
2018-06-21T20:17:56.915Z,10.07
2018-06-21T20:20:06.331Z,9.43
2018-06-21T20:22:10.291Z,11.70
2018-06-21T20:24:14.337Z,5.47
2018-06-21T20:26:19.459Z,10.93
2018-06-21T20:28:23.826Z,2.63
2018-06-21T20:30:28.286Z,3.17
2018-06-21T20:32:32.502Z,8.13
2018-06-21T20:34:36.938Z,5.40
2018-06-21T20:36:41.214Z,4.47
2018-06-21T20:38:46.516Z,3.63
2018-06-21T20:40:50.793Z,2.40
2018-06-21T20:42:55.085Z,5.43
2018-06-21T20:44:59.510Z,3.57
2018-06-21T20:47:03.516Z,5.13
2018-06-21T20:49:07.727Z,7.03
2018-06-21T20:51:11.706Z,8.13
2018-06-21T20:53:15.965Z,2.77
2018-06-21T20:55:20.238Z,4.60
2018-06-21T20:57:24.783Z,9.00
2018-06-21T20:59:29.068Z,10.80
2018-06-21T21:01:33.284Z,5.67
2018-06-21T21:03:37.320Z,2.23
2018-06-21T21:05:41.682Z,8.83
2018-06-21T21:07:48.590Z,5.43
2018-06-21T21:09:53.178Z,5.90
2018-06-21T21:11:57.457Z,9.00
2018-06-21T21:14:01.458Z,6.10
2018-06-21T21:16:05.789Z,3.53
2018-06-21T21:18:09.755Z,6.70
2018-06-21T21:20:13.711Z,7.40
2018-06-21T21:22:17.671Z,8.57
2018-06-21T21:24:21.894Z,8.57
2018-06-21T21:26:26.184Z,10.90
2018-06-21T21:28:30.525Z,6.00
2018-06-21T21:30:34.927Z,4.40
2018-06-21T21:32:39.118Z,5.70
2018-06-21T21:34:43.398Z,16.60
2018-06-21T21:36:47.998Z,10.73
2018-06-21T21:38:52.230Z,9.80
2018-06-21T21:40:56.198Z,3.23
2018-06-21T21:43:00.544Z,6.07
2018-06-21T21:45:05.025Z,2.40
2018-06-21T21:47:08.957Z,9.10
2018-06-21T21:49:13.445Z,8.23
2018-06-21T21:51:17.449Z,5.43
2018-06-21T21:53:21.674Z,4.70
2018-06-21T21:55:25.629Z,6.17
2018-06-21T21:57:29.574Z,5.13
2018-06-21T21:59:34.355Z,16.87
2018-06-21T22:01:39.014Z,4.83
2018-06-21T22:03:43.289Z,7.67
2018-06-21T22:05:47.893Z,5.63
2018-06-21T22:07:52.135Z,4.20
2018-06-21T22:09:56.366Z,5.03
2018-06-21T22:12:00.346Z,5.30
2018-06-21T22:14:04.662Z,2.00
2018-06-21T22:16:08.638Z,6.87
2018-06-21T22:18:12.903Z,4.27
2018-06-21T22:20:17.114Z,8.63
2018-06-21T22:22:21.349Z,2.10
2018-06-21T22:24:25.862Z,9.10
2018-06-21T22:26:30.107Z,13.90
2018-06-21T22:28:34.387Z,14.90
2018-06-21T22:30:38.618Z,4.60
2018-06-21T22:32:43.016Z,5.10
2018-06-21T22:34:47.210Z,3.33
2018-06-21T22:36:51.443Z,2.30
2018-06-21T22:38:55.670Z,11.53
2018-06-21T22:40:59.902Z,2.17
2018-06-21T22:43:04.506Z,3.00
2018-06-21T22:45:08.490Z,5.23
2018-06-21T22:47:12.438Z,3.80
2018-06-21T22:49:16.410Z,4.97
2018-06-21T22:51:20.414Z,17.53
2018-06-21T22:53:24.398Z,8.70
2018-06-21T22:55:28.614Z,10.43
2018-06-21T22:57:33.017Z,9.63
2018-06-21T22:59:36.970Z,9.03
2018-06-21T23:01:41.275Z,13.43
2018-06-21T23:03:45.890Z,6.93
2018-06-21T23:05:50.110Z,6.80
2018-06-21T23:07:54.203Z,2.70
2018-06-21T23:09:58.398Z,6.17
2018-06-21T23:12:02.752Z,4.00
2018-06-21T23:14:06.718Z,6.77
2018-06-21T23:16:10.950Z,14.27
2018-06-21T23:18:25.281Z,4.87
2018-06-21T23:20:29.296Z,3.50
2018-06-21T23:22:33.542Z,3.27
2018-06-21T23:24:37.523Z,1.30
2018-06-21T23:26:41.788Z,3.07
2018-06-21T23:28:46.169Z,14.83
2018-06-21T23:30:50.430Z,2.87
2018-06-21T23:32:54.666Z,8.57
2018-06-21T23:34:58.874Z,1.40
2018-06-21T23:37:03.114Z,6.90
2018-06-21T23:39:09.224Z,7.07
2018-06-21T23:41:13.465Z,7.70
2018-06-21T23:43:17.723Z,2.53
2018-06-21T23:45:21.997Z,8.97
2018-06-21T23:47:25.938Z,10.07
2018-06-21T23:49:30.517Z,6.30
2018-06-21T23:51:34.885Z,1.63
2018-06-21T23:53:38.858Z,9.10
2018-06-21T23:55:43.374Z,3.73
2018-06-21T23:57:47.657Z,5.33
2018-06-21T23:59:51.928Z,4.97
